sensor_id;sensor_type;location;lat;lon;timestamp;P1;durP1;ratioP1;P2;durP2;ratioP2
40815;SDS011;26535;48.788;9.214;2022-12-18T00:00:32;92.40;;;38.05;;
40815;SDS011;26535;48.788;9.214;2022-12-18T06:01:34;58.05;;;27.08;;
40815;SDS011;26535;48.788;9.214;2022-12-18T06:07:06;54.85;;;24.13;;
40815;SDS011;26535;48.788;9.214;2022-12-18T06:09:35;55.40;;;25.65;;
40815;SDS011;26535;48.788;9.214;2022-12-18T06:13:04;51.20;;;23.88;;
40815;SDS011;26535;48.788;9.214;2022-12-18T06:16:23;56.53;;;25.70;;
40815;SDS011;26535;48.788;9.214;2022-12-18T06:19:13;57.15;;;26.02;;
40815;SDS011;26535;48.788;9.214;2022-12-18T06:22:07;55.00;;;25.48;;
40815;SDS011;26535;48.788;9.214;2022-12-18T06:24:44;49.53;;;24.45;;
40815;SDS011;26535;48.788;9.214;2022-12-18T06:27:10;54.35;;;25.48;;
40815;SDS011;26535;48.788;9.214;2022-12-18T06:30:09;51.75;;;23.88;;
40815;SDS011;26535;48.788;9.214;2022-12-18T06:32:55;53.60;;;24.95;;
40815;SDS011;26535;48.788;9.214;2022-12-18T06:35:43;60.55;;;25.50;;
40815;SDS011;26535;48.788;9.214;2022-12-18T06:38:31;46.92;;;23.48;;
40815;SDS011;26535;48.788;9.214;2022-12-18T06:45:25;58.13;;;25.55;;
40815;SDS011;26535;48.788;9.214;2022-12-18T06:49:06;52.05;;;23.77;;
40815;SDS011;26535;48.788;9.214;2022-12-18T06:52:40;48.08;;;24.20;;
40815;SDS011;26535;48.788;9.214;2022-12-18T06:55:50;56.05;;;25.55;;
40815;SDS011;26535;48.788;9.214;2022-12-18T06:58:50;57.63;;;25.42;;
40815;SDS011;26535;48.788;9.214;2022-12-18T07:01:52;53.35;;;23.65;;
40815;SDS011;26535;48.788;9.214;2022-12-18T07:04:53;58.83;;;24.85;;
40815;SDS011;26535;48.788;9.214;2022-12-18T07:10:52;56.35;;;25.92;;
40815;SDS011;26535;48.788;9.214;2022-12-18T07:14:05;55.75;;;25.60;;
40815;SDS011;26535;48.788;9.214;2022-12-18T07:16:37;54.50;;;24.80;;
40815;SDS011;26535;48.788;9.214;2022-12-18T07:19:21;53.55;;;24.23;;
40815;SDS011;26535;48.788;9.214;2022-12-18T07:22:01;52.35;;;25.20;;
40815;SDS011;26535;48.788;9.214;2022-12-18T07:29:17;56.38;;;25.80;;
40815;SDS011;26535;48.788;9.214;2022-12-18T07:31:49;55.17;;;24.55;;
40815;SDS011;26535;48.788;9.214;2022-12-18T07:34:15;52.38;;;24.63;;
40815;SDS011;26535;48.788;9.214;2022-12-18T07:36:41;54.40;;;25.77;;
40815;SDS011;26535;48.788;9.214;2022-12-18T07:42:00;51.33;;;24.05;;
40815;SDS011;26535;48.788;9.214;2022-12-18T07:45:06;63.58;;;28.20;;
40815;SDS011;26535;48.788;9.214;2022-12-18T07:47:38;63.85;;;29.85;;
40815;SDS011;26535;48.788;9.214;2022-12-18T07:50:18;57.88;;;26.42;;
40815;SDS011;26535;48.788;9.214;2022-12-18T07:52:44;53.60;;;24.80;;
40815;SDS011;26535;48.788;9.214;2022-12-18T07:55:12;57.80;;;25.65;;
40815;SDS011;26535;48.788;9.214;2022-12-18T07:58:02;53.60;;;24.67;;
40815;SDS011;26535;48.788;9.214;2022-12-18T08:01:06;56.45;;;24.88;;
40815;SDS011;26535;48.788;9.214;2022-12-18T08:03:39;42.37;;;20.07;;
40815;SDS011;26535;48.788;9.214;2022-12-18T08:06:27;50.75;;;23.15;;
40815;SDS011;26535;48.788;9.214;2022-12-18T08:26:30;57.65;;;25.40;;
40815;SDS011;26535;48.788;9.214;2022-12-18T08:29:19;54.67;;;26.50;;
40815;SDS011;26535;48.788;9.214;2022-12-18T08:35:36;53.97;;;24.70;;
40815;SDS011;26535;48.788;9.214;2022-12-18T08:38:05;48.50;;;24.73;;
40815;SDS011;26535;48.788;9.214;2022-12-18T08:41:38;50.60;;;24.88;;
40815;SDS011;26535;48.788;9.214;2022-12-18T08:44:41;49.78;;;24.60;;
40815;SDS011;26535;48.788;9.214;2022-12-18T08:47:14;55.80;;;25.17;;
40815;SDS011;26535;48.788;9.214;2022-12-18T08:49:40;56.05;;;25.55;;
40815;SDS011;26535;48.788;9.214;2022-12-18T08:52:33;51.28;;;23.65;;
40815;SDS011;26535;48.788;9.214;2022-12-18T08:55:23;51.33;;;24.30;;
40815;SDS011;26535;48.788;9.214;2022-12-18T08:58:32;53.70;;;24.92;;
40815;SDS011;26535;48.788;9.214;2022-12-18T09:01:05;57.60;;;25.63;;
40815;SDS011;26535;48.788;9.214;2022-12-18T09:03:43;53.88;;;24.58;;
40815;SDS011;26535;48.788;9.214;2022-12-18T09:06:42;57.17;;;24.92;;
40815;SDS011;26535;48.788;9.214;2022-12-18T09:09:14;55.78;;;25.52;;
40815;SDS011;26535;48.788;9.214;2022-12-18T09:11:55;56.72;;;25.33;;
40815;SDS011;26535;48.788;9.214;2022-12-18T09:17:25;55.22;;;23.67;;
40815;SDS011;26535;48.788;9.214;2022-12-18T09:24:17;54.42;;;24.45;;
40815;SDS011;26535;48.788;9.214;2022-12-18T09:27:07;54.65;;;22.92;;
40815;SDS011;26535;48.788;9.214;2022-12-18T09:29:35;53.30;;;25.10;;
40815;SDS011;26535;48.788;9.214;2022-12-18T09:32:31;55.30;;;24.95;;
40815;SDS011;26535;48.788;9.214;2022-12-18T09:35:01;62.83;;;25.48;;
40815;SDS011;26535;48.788;9.214;2022-12-18T09:37:35;54.00;;;25.23;;
40815;SDS011;26535;48.788;9.214;2022-12-18T09:40:09;51.80;;;24.20;;
40815;SDS011;26535;48.788;9.214;2022-12-18T09:43:03;54.95;;;24.63;;
40815;SDS011;26535;48.788;9.214;2022-12-18T09:49:45;58.72;;;24.90;;
40815;SDS011;26535;48.788;9.214;2022-12-18T09:55:41;53.22;;;24.75;;
40815;SDS011;26535;48.788;9.214;2022-12-18T09:59:03;51.33;;;23.88;;
40815;SDS011;26535;48.788;9.214;2022-12-18T10:01:46;49.05;;;23.13;;
40815;SDS011;26535;48.788;9.214;2022-12-18T10:04:12;49.47;;;22.65;;
40815;SDS011;26535;48.788;9.214;2022-12-18T10:07:30;52.90;;;22.42;;
40815;SDS011;26535;48.788;9.214;2022-12-18T10:15:56;52.70;;;24.05;;
40815;SDS011;26535;48.788;9.214;2022-12-18T10:25:01;60.22;;;26.75;;
40815;SDS011;26535;48.788;9.214;2022-12-18T10:27:46;60.28;;;26.23;;
40815;SDS011;26535;48.788;9.214;2022-12-18T10:30:43;58.38;;;26.20;;
40815;SDS011;26535;48.788;9.214;2022-12-18T10:33:22;52.90;;;25.75;;
40815;SDS011;26535;48.788;9.214;2022-12-18T10:36:00;51.22;;;23.67;;
40815;SDS011;26535;48.788;9.214;2022-12-18T10:38:29;53.42;;;24.98;;
40815;SDS011;26535;48.788;9.214;2022-12-18T10:40:58;47.38;;;24.90;;
40815;SDS011;26535;48.788;9.214;2022-12-18T10:48:36;47.10;;;22.92;;
40815;SDS011;26535;48.788;9.214;2022-12-18T10:51:07;49.13;;;24.02;;
40815;SDS011;26535;48.788;9.214;2022-12-18T10:53:34;47.33;;;23.52;;
40815;SDS011;26535;48.788;9.214;2022-12-18T10:56:02;46.33;;;24.55;;
40815;SDS011;26535;48.788;9.214;2022-12-18T10:58:31;49.90;;;24.73;;
40815;SDS011;26535;48.788;9.214;2022-12-18T11:01:15;49.30;;;24.45;;
40815;SDS011;26535;48.788;9.214;2022-12-18T11:03:43;46.63;;;23.60;;
40815;SDS011;26535;48.788;9.214;2022-12-18T11:06:12;45.13;;;23.98;;
40815;SDS011;26535;48.788;9.214;2022-12-18T11:09:03;44.95;;;23.70;;
40815;SDS011;26535;48.788;9.214;2022-12-18T11:11:31;42.50;;;21.48;;
40815;SDS011;26535;48.788;9.214;2022-12-18T11:16:24;41.17;;;23.08;;
40815;SDS011;26535;48.788;9.214;2022-12-18T11:18:51;43.38;;;23.42;;
40815;SDS011;26535;48.788;9.214;2022-12-18T11:21:17;41.65;;;24.60;;
40815;SDS011;26535;48.788;9.214;2022-12-18T11:23:52;40.33;;;23.08;;
40815;SDS011;26535;48.788;9.214;2022-12-18T11:26:21;39.97;;;23.00;;
40815;SDS011;26535;48.788;9.214;2022-12-18T11:29:10;36.75;;;22.80;;
40815;SDS011;26535;48.788;9.214;2022-12-18T11:31:42;41.92;;;24.00;;
40815;SDS011;26535;48.788;9.214;2022-12-18T11:34:27;36.53;;;22.33;;
40815;SDS011;26535;48.788;9.214;2022-12-18T11:37:05;36.58;;;20.83;;
40815;SDS011;26535;48.788;9.214;2022-12-18T11:42:17;33.60;;;21.05;;
40815;SDS011;26535;48.788;9.214;2022-12-18T11:47:42;34.30;;;21.52;;
40815;SDS011;26535;48.788;9.214;2022-12-18T11:50:41;35.38;;;20.73;;
40815;SDS011;26535;48.788;9.214;2022-12-18T11:53:16;36.53;;;21.50;;
40815;SDS011;26535;48.788;9.214;2022-12-18T12:06:39;34.58;;;20.00;;
40815;SDS011;26535;48.788;9.214;2022-12-18T12:14:55;34.83;;;21.02;;
40815;SDS011;26535;48.788;9.214;2022-12-18T12:17:45;38.67;;;22.00;;
40815;SDS011;26535;48.788;9.214;2022-12-18T12:26:10;35.53;;;20.42;;
40815;SDS011;26535;48.788;9.214;2022-12-18T12:31:40;37.22;;;20.70;;
40815;SDS011;26535;48.788;9.214;2022-12-18T12:34:25;39.30;;;20.73;;
40815;SDS011;26535;48.788;9.214;2022-12-18T12:37:01;33.63;;;19.98;;
40815;SDS011;26535;48.788;9.214;2022-12-18T12:39:30;38.08;;;21.08;;
40815;SDS011;26535;48.788;9.214;2022-12-18T12:42:02;36.90;;;19.30;;
40815;SDS011;26535;48.788;9.214;2022-12-18T12:44:56;39.42;;;20.50;;
40815;SDS011;26535;48.788;9.214;2022-12-18T12:47:33;36.53;;;19.98;;
40815;SDS011;26535;48.788;9.214;2022-12-18T12:50:14;34.03;;;18.02;;
40815;SDS011;26535;48.788;9.214;2022-12-18T12:52:46;35.78;;;18.88;;
40815;SDS011;26535;48.788;9.214;2022-12-18T12:55:23;38.05;;;19.05;;
40815;SDS011;26535;48.788;9.214;2022-12-18T13:00:55;32.58;;;17.55;;
40815;SDS011;26535;48.788;9.214;2022-12-18T13:08:54;37.70;;;19.52;;
40815;SDS011;26535;48.788;9.214;2022-12-18T13:11:34;36.63;;;19.15;;
40815;SDS011;26535;48.788;9.214;2022-12-18T13:17:14;39.35;;;21.02;;
40815;SDS011;26535;48.788;9.214;2022-12-18T13:19:41;37.63;;;20.17;;
40815;SDS011;26535;48.788;9.214;2022-12-18T13:22:24;38.40;;;19.73;;
40815;SDS011;26535;48.788;9.214;2022-12-18T13:24:58;39.60;;;19.02;;
40815;SDS011;26535;48.788;9.214;2022-12-18T13:30:41;33.67;;;17.90;;
40815;SDS011;26535;48.788;9.214;2022-12-18T13:35:40;39.08;;;20.23;;
40815;SDS011;26535;48.788;9.214;2022-12-18T13:41:00;37.80;;;19.25;;
40815;SDS011;26535;48.788;9.214;2022-12-18T13:43:28;37.85;;;19.48;;
40815;SDS011;26535;48.788;9.214;2022-12-18T13:46:21;45.85;;;20.33;;
40815;SDS011;26535;48.788;9.214;2022-12-18T13:48:52;43.47;;;19.95;;
40815;SDS011;26535;48.788;9.214;2022-12-18T13:51:28;38.70;;;18.92;;
40815;SDS011;26535;48.788;9.214;2022-12-18T13:53:58;40.58;;;20.83;;
40815;SDS011;26535;48.788;9.214;2022-12-18T13:56:33;43.92;;;21.05;;
40815;SDS011;26535;48.788;9.214;2022-12-18T14:01:46;39.90;;;20.65;;
40815;SDS011;26535;48.788;9.214;2022-12-18T14:04:23;42.63;;;21.85;;
40815;SDS011;26535;48.788;9.214;2022-12-18T14:09:36;46.30;;;22.27;;
40815;SDS011;26535;48.788;9.214;2022-12-18T14:12:06;44.08;;;22.70;;
40815;SDS011;26535;48.788;9.214;2022-12-18T14:14:58;41.83;;;22.00;;
40815;SDS011;26535;48.788;9.214;2022-12-18T14:17:25;47.55;;;21.83;;
40815;SDS011;26535;48.788;9.214;2022-12-18T14:19:50;46.35;;;22.85;;
40815;SDS011;26535;48.788;9.214;2022-12-18T14:22:18;43.25;;;21.85;;
40815;SDS011;26535;48.788;9.214;2022-12-18T14:24:46;42.35;;;22.35;;
40815;SDS011;26535;48.788;9.214;2022-12-18T14:27:30;46.33;;;23.13;;
40815;SDS011;26535;48.788;9.214;2022-12-18T14:29:55;50.42;;;23.15;;
40815;SDS011;26535;48.788;9.214;2022-12-18T14:32:21;48.00;;;24.08;;
40815;SDS011;26535;48.788;9.214;2022-12-18T14:34:51;45.92;;;22.17;;
40815;SDS011;26535;48.788;9.214;2022-12-18T14:37:23;48.25;;;23.35;;
40815;SDS011;26535;48.788;9.214;2022-12-18T14:39:57;43.17;;;22.35;;
40815;SDS011;26535;48.788;9.214;2022-12-18T14:42:33;45.20;;;21.88;;
40815;SDS011;26535;48.788;9.214;2022-12-18T14:45:33;53.63;;;24.52;;
40815;SDS011;26535;48.788;9.214;2022-12-18T14:53:39;56.45;;;24.48;;
40815;SDS011;26535;48.788;9.214;2022-12-18T14:56:25;59.80;;;26.92;;
40815;SDS011;26535;48.788;9.214;2022-12-18T14:58:56;58.53;;;26.45;;
40815;SDS011;26535;48.788;9.214;2022-12-18T15:04:25;63.60;;;27.05;;
40815;SDS011;26535;48.788;9.214;2022-12-18T15:07:09;61.88;;;24.52;;
40815;SDS011;26535;48.788;9.214;2022-12-18T15:12:50;45.40;;;22.20;;
40815;SDS011;26535;48.788;9.214;2022-12-18T15:18:04;47.75;;;21.52;;
40815;SDS011;26535;48.788;9.214;2022-12-18T15:20:46;46.80;;;22.67;;
40815;SDS011;26535;48.788;9.214;2022-12-18T15:23:20;53.45;;;22.95;;
40815;SDS011;26535;48.788;9.214;2022-12-18T15:26:23;53.90;;;22.55;;
40815;SDS011;26535;48.788;9.214;2022-12-18T15:28:47;48.10;;;21.65;;
40815;SDS011;26535;48.788;9.214;2022-12-18T15:36:46;50.25;;;21.85;;
40815;SDS011;26535;48.788;9.214;2022-12-18T15:39:12;52.22;;;21.67;;
40815;SDS011;26535;48.788;9.214;2022-12-18T15:41:38;52.53;;;21.88;;
40815;SDS011;26535;48.788;9.214;2022-12-18T15:44:20;48.15;;;23.00;;
40815;SDS011;26535;48.788;9.214;2022-12-18T15:46:48;47.55;;;22.05;;
40815;SDS011;26535;48.788;9.214;2022-12-18T15:49:14;56.05;;;23.33;;
40815;SDS011;26535;48.788;9.214;2022-12-18T15:51:42;55.50;;;22.70;;
40815;SDS011;26535;48.788;9.214;2022-12-18T15:54:10;52.47;;;23.35;;
40815;SDS011;26535;48.788;9.214;2022-12-18T15:56:38;51.88;;;23.00;;
40815;SDS011;26535;48.788;9.214;2022-12-18T15:59:25;49.15;;;23.60;;
40815;SDS011;26535;48.788;9.214;2022-12-18T16:01:52;58.63;;;23.92;;
40815;SDS011;26535;48.788;9.214;2022-12-18T16:04:21;51.42;;;22.40;;
40815;SDS011;26535;48.788;9.214;2022-12-18T16:06:49;45.22;;;17.98;;
40815;SDS011;26535;48.788;9.214;2022-12-18T16:09:16;50.70;;;22.30;;
40815;SDS011;26535;48.788;9.214;2022-12-18T16:11:42;48.95;;;22.02;;
40815;SDS011;26535;48.788;9.214;2022-12-18T16:14:18;51.75;;;21.73;;
40815;SDS011;26535;48.788;9.214;2022-12-18T16:16:46;52.58;;;22.67;;
40815;SDS011;26535;48.788;9.214;2022-12-18T16:19:17;56.75;;;23.75;;
40815;SDS011;26535;48.788;9.214;2022-12-18T16:21:46;56.70;;;23.80;;
40815;SDS011;26535;48.788;9.214;2022-12-18T16:24:21;52.65;;;23.10;;
40815;SDS011;26535;48.788;9.214;2022-12-18T16:26:48;51.30;;;22.85;;
40815;SDS011;26535;48.788;9.214;2022-12-18T16:29:16;50.97;;;22.48;;
40815;SDS011;26535;48.788;9.214;2022-12-18T16:31:43;56.85;;;23.20;;
40815;SDS011;26535;48.788;9.214;2022-12-18T16:34:19;56.10;;;24.73;;
40815;SDS011;26535;48.788;9.214;2022-12-18T16:36:50;51.33;;;23.20;;
40815;SDS011;26535;48.788;9.214;2022-12-18T16:39:21;44.15;;;19.27;;
40815;SDS011;26535;48.788;9.214;2022-12-18T16:41:47;53.80;;;24.00;;
40815;SDS011;26535;48.788;9.214;2022-12-18T16:44:13;55.47;;;23.38;;
40815;SDS011;26535;48.788;9.214;2022-12-18T16:46:44;55.50;;;24.05;;
40815;SDS011;26535;48.788;9.214;2022-12-18T16:49:11;51.72;;;22.02;;
40815;SDS011;26535;48.788;9.214;2022-12-18T16:51:38;49.35;;;21.98;;
40815;SDS011;26535;48.788;9.214;2022-12-18T16:54:04;57.80;;;24.40;;
40815;SDS011;26535;48.788;9.214;2022-12-18T16:56:30;53.15;;;23.92;;
40815;SDS011;26535;48.788;9.214;2022-12-18T16:58:57;56.88;;;24.58;;
40815;SDS011;26535;48.788;9.214;2022-12-18T17:01:24;53.13;;;23.52;;
40815;SDS011;26535;48.788;9.214;2022-12-18T17:03:53;53.15;;;24.02;;
40815;SDS011;26535;48.788;9.214;2022-12-18T17:06:21;54.67;;;23.15;;
40815;SDS011;26535;48.788;9.214;2022-12-18T17:08:48;51.22;;;23.05;;
40815;SDS011;26535;48.788;9.214;2022-12-18T17:11:21;56.10;;;24.45;;
40815;SDS011;26535;48.788;9.214;2022-12-18T17:13:49;51.55;;;22.20;;
40815;SDS011;26535;48.788;9.214;2022-12-18T17:16:14;51.88;;;22.33;;
40815;SDS011;26535;48.788;9.214;2022-12-18T17:18:41;50.97;;;22.45;;
40815;SDS011;26535;48.788;9.214;2022-12-18T17:21:13;52.75;;;23.65;;
40815;SDS011;26535;48.788;9.214;2022-12-18T17:23:42;53.13;;;23.45;;
40815;SDS011;26535;48.788;9.214;2022-12-18T17:26:10;50.28;;;22.95;;
40815;SDS011;26535;48.788;9.214;2022-12-18T17:28:37;46.45;;;21.98;;
40815;SDS011;26535;48.788;9.214;2022-12-18T17:31:10;48.22;;;22.08;;
40815;SDS011;26535;48.788;9.214;2022-12-18T17:33:38;51.38;;;22.08;;
40815;SDS011;26535;48.788;9.214;2022-12-18T17:36:05;51.53;;;23.08;;
40815;SDS011;26535;48.788;9.214;2022-12-18T17:38:31;46.95;;;21.33;;
40815;SDS011;26535;48.788;9.214;2022-12-18T17:41:01;55.50;;;24.95;;
40815;SDS011;26535;48.788;9.214;2022-12-18T17:43:27;51.03;;;23.63;;
40815;SDS011;26535;48.788;9.214;2022-12-18T17:46:00;53.08;;;24.00;;
40815;SDS011;26535;48.788;9.214;2022-12-18T17:48:27;49.33;;;22.17;;
40815;SDS011;26535;48.788;9.214;2022-12-18T17:50:53;47.67;;;21.73;;
40815;SDS011;26535;48.788;9.214;2022-12-18T17:53:19;51.33;;;24.10;;
40815;SDS011;26535;48.788;9.214;2022-12-18T17:55:54;50.92;;;21.73;;
40815;SDS011;26535;48.788;9.214;2022-12-18T17:58:21;45.80;;;22.55;;
40815;SDS011;26535;48.788;9.214;2022-12-18T18:00:47;50.42;;;22.50;;
40815;SDS011;26535;48.788;9.214;2022-12-18T18:03:13;46.40;;;21.67;;
40815;SDS011;26535;48.788;9.214;2022-12-18T18:05:39;48.80;;;22.30;;
40815;SDS011;26535;48.788;9.214;2022-12-18T18:08:05;48.70;;;21.75;;
40815;SDS011;26535;48.788;9.214;2022-12-18T18:10:37;48.47;;;21.38;;
40815;SDS011;26535;48.788;9.214;2022-12-18T18:13:16;43.00;;;21.23;;
40815;SDS011;26535;48.788;9.214;2022-12-18T18:16:11;48.85;;;21.77;;
40815;SDS011;26535;48.788;9.214;2022-12-18T18:18:37;48.03;;;20.80;;
40815;SDS011;26535;48.788;9.214;2022-12-18T18:21:04;48.60;;;21.63;;
40815;SDS011;26535;48.788;9.214;2022-12-18T18:23:31;49.67;;;23.13;;
40815;SDS011;26535;48.788;9.214;2022-12-18T18:26:04;49.05;;;23.13;;
40815;SDS011;26535;48.788;9.214;2022-12-18T18:28:34;48.78;;;22.00;;
40815;SDS011;26535;48.788;9.214;2022-12-18T18:31:04;46.53;;;21.55;;
40815;SDS011;26535;48.788;9.214;2022-12-18T18:33:31;46.33;;;20.90;;
40815;SDS011;26535;48.788;9.214;2022-12-18T18:36:00;51.75;;;22.05;;
40815;SDS011;26535;48.788;9.214;2022-12-18T18:38:26;48.03;;;21.45;;
40815;SDS011;26535;48.788;9.214;2022-12-18T18:40:56;45.92;;;20.80;;
40815;SDS011;26535;48.788;9.214;2022-12-18T18:43:32;46.97;;;21.70;;
40815;SDS011;26535;48.788;9.214;2022-12-18T18:45:59;48.33;;;21.27;;
40815;SDS011;26535;48.788;9.214;2022-12-18T18:48:27;50.75;;;22.25;;
40815;SDS011;26535;48.788;9.214;2022-12-18T18:51:04;48.42;;;21.45;;
40815;SDS011;26535;48.788;9.214;2022-12-18T18:53:34;48.10;;;20.90;;
40815;SDS011;26535;48.788;9.214;2022-12-18T18:56:02;50.45;;;22.33;;
40815;SDS011;26535;48.788;9.214;2022-12-18T18:58:28;45.88;;;21.35;;
40815;SDS011;26535;48.788;9.214;2022-12-18T19:00:58;49.40;;;21.00;;
40815;SDS011;26535;48.788;9.214;2022-12-18T19:03:26;46.42;;;21.35;;
40815;SDS011;26535;48.788;9.214;2022-12-18T19:05:53;47.92;;;22.75;;
40815;SDS011;26535;48.788;9.214;2022-12-18T19:08:25;42.88;;;21.13;;
40815;SDS011;26535;48.788;9.214;2022-12-18T19:10:56;53.15;;;22.42;;
40815;SDS011;26535;48.788;9.214;2022-12-18T19:13:25;48.80;;;21.60;;
40815;SDS011;26535;48.788;9.214;2022-12-18T19:15:54;45.95;;;21.33;;
40815;SDS011;26535;48.788;9.214;2022-12-18T19:18:46;51.10;;;22.08;;
40815;SDS011;26535;48.788;9.214;2022-12-18T19:21:12;48.85;;;20.65;;
40815;SDS011;26535;48.788;9.214;2022-12-18T19:23:38;57.70;;;28.38;;
40815;SDS011;26535;48.788;9.214;2022-12-18T19:26:07;67.18;;;31.20;;
40815;SDS011;26535;48.788;9.214;2022-12-18T19:28:34;54.38;;;24.80;;
40815;SDS011;26535;48.788;9.214;2022-12-18T19:31:03;48.70;;;23.15;;
40815;SDS011;26535;48.788;9.214;2022-12-18T19:33:35;47.55;;;21.15;;
40815;SDS011;26535;48.788;9.214;2022-12-18T19:36:10;46.28;;;20.42;;
40815;SDS011;26535;48.788;9.214;2022-12-18T19:38:36;48.38;;;22.05;;
40815;SDS011;26535;48.788;9.214;2022-12-18T19:41:07;50.83;;;22.45;;
40815;SDS011;26535;48.788;9.214;2022-12-18T19:43:33;52.65;;;22.42;;
40815;SDS011;26535;48.788;9.214;2022-12-18T19:46:04;49.33;;;21.65;;
40815;SDS011;26535;48.788;9.214;2022-12-18T19:48:35;49.85;;;23.05;;
40815;SDS011;26535;48.788;9.214;2022-12-18T19:51:04;49.38;;;22.40;;
40815;SDS011;26535;48.788;9.214;2022-12-18T19:53:35;51.17;;;24.02;;
40815;SDS011;26535;48.788;9.214;2022-12-18T19:56:08;54.97;;;23.92;;
40815;SDS011;26535;48.788;9.214;2022-12-18T19:58:36;49.78;;;22.60;;
40815;SDS011;26535;48.788;9.214;2022-12-18T20:01:03;50.17;;;22.77;;
40815;SDS011;26535;48.788;9.214;2022-12-18T20:03:29;49.45;;;20.33;;
40815;SDS011;26535;48.788;9.214;2022-12-18T20:05:55;45.90;;;20.17;;
40815;SDS011;26535;48.788;9.214;2022-12-18T20:08:37;45.97;;;19.98;;
40815;SDS011;26535;48.788;9.214;2022-12-18T20:11:04;51.75;;;22.15;;
40815;SDS011;26535;48.788;9.214;2022-12-18T20:13:30;46.20;;;21.30;;
40815;SDS011;26535;48.788;9.214;2022-12-18T20:15:56;52.25;;;21.73;;
40815;SDS011;26535;48.788;9.214;2022-12-18T20:18:22;44.28;;;19.33;;
40815;SDS011;26535;48.788;9.214;2022-12-18T20:23:15;44.72;;;20.25;;
40815;SDS011;26535;48.788;9.214;2022-12-18T20:25:42;43.92;;;19.40;;
40815;SDS011;26535;48.788;9.214;2022-12-18T20:28:08;63.50;;;28.98;;
40815;SDS011;26535;48.788;9.214;2022-12-18T20:30:40;64.85;;;29.30;;
40815;SDS011;26535;48.788;9.214;2022-12-18T20:33:06;53.72;;;25.45;;
40815;SDS011;26535;48.788;9.214;2022-12-18T20:35:32;48.60;;;21.85;;
40815;SDS011;26535;48.788;9.214;2022-12-18T20:37:58;48.70;;;23.33;;
40815;SDS011;26535;48.788;9.214;2022-12-18T20:40:26;46.30;;;20.83;;
40815;SDS011;26535;48.788;9.214;2022-12-18T20:45:20;47.90;;;20.35;;
40815;SDS011;26535;48.788;9.214;2022-12-18T20:47:48;47.75;;;22.33;;
40815;SDS011;26535;48.788;9.214;2022-12-18T20:50:17;48.97;;;20.42;;
40815;SDS011;26535;48.788;9.214;2022-12-18T20:52:43;49.40;;;21.80;;
40815;SDS011;26535;48.788;9.214;2022-12-18T20:55:08;46.47;;;20.50;;
40815;SDS011;26535;48.788;9.214;2022-12-18T20:57:34;46.25;;;20.45;;
40815;SDS011;26535;48.788;9.214;2022-12-18T21:00:00;49.67;;;21.75;;
40815;SDS011;26535;48.788;9.214;2022-12-18T21:02:26;47.10;;;21.10;;
40815;SDS011;26535;48.788;9.214;2022-12-18T21:04:51;42.47;;;19.70;;
40815;SDS011;26535;48.788;9.214;2022-12-18T21:07:18;49.28;;;21.98;;
40815;SDS011;26535;48.788;9.214;2022-12-18T21:09:44;50.25;;;20.83;;
40815;SDS011;26535;48.788;9.214;2022-12-18T21:12:11;47.17;;;20.90;;
40815;SDS011;26535;48.788;9.214;2022-12-18T21:17:31;44.53;;;20.52;;
40815;SDS011;26535;48.788;9.214;2022-12-18T21:19:57;45.97;;;21.35;;
40815;SDS011;26535;48.788;9.214;2022-12-18T21:22:23;45.90;;;21.70;;
40815;SDS011;26535;48.788;9.214;2022-12-18T21:24:48;52.20;;;22.00;;
40815;SDS011;26535;48.788;9.214;2022-12-18T21:27:14;60.15;;;27.45;;
40815;SDS011;26535;48.788;9.214;2022-12-18T21:29:40;47.42;;;22.42;;
40815;SDS011;26535;48.788;9.214;2022-12-18T21:32:07;48.15;;;21.42;;
40815;SDS011;26535;48.788;9.214;2022-12-18T21:34:34;49.90;;;21.90;;
40815;SDS011;26535;48.788;9.214;2022-12-18T21:37:00;50.35;;;21.90;;
40815;SDS011;26535;48.788;9.214;2022-12-18T21:39:26;50.25;;;23.35;;
40815;SDS011;26535;48.788;9.214;2022-12-18T21:41:53;49.00;;;21.88;;
40815;SDS011;26535;48.788;9.214;2022-12-18T21:44:39;49.08;;;21.50;;
40815;SDS011;26535;48.788;9.214;2022-12-18T21:47:05;51.10;;;22.55;;
40815;SDS011;26535;48.788;9.214;2022-12-18T21:49:31;48.80;;;22.67;;
40815;SDS011;26535;48.788;9.214;2022-12-18T21:51:57;51.17;;;22.90;;
40815;SDS011;26535;48.788;9.214;2022-12-18T21:54:24;52.35;;;22.95;;
40815;SDS011;26535;48.788;9.214;2022-12-18T21:56:52;49.38;;;22.33;;
40815;SDS011;26535;48.788;9.214;2022-12-18T22:01:49;55.28;;;24.80;;
40815;SDS011;26535;48.788;9.214;2022-12-18T22:04:16;51.33;;;23.08;;
40815;SDS011;26535;48.788;9.214;2022-12-18T22:06:43;54.55;;;24.27;;
40815;SDS011;26535;48.788;9.214;2022-12-18T22:09:12;53.00;;;23.80;;
40815;SDS011;26535;48.788;9.214;2022-12-18T22:11:39;48.10;;;21.15;;
40815;SDS011;26535;48.788;9.214;2022-12-18T22:14:05;52.28;;;23.30;;
40815;SDS011;26535;48.788;9.214;2022-12-18T22:16:31;51.83;;;21.90;;
40815;SDS011;26535;48.788;9.214;2022-12-18T22:18:57;48.28;;;21.98;;
40815;SDS011;26535;48.788;9.214;2022-12-18T22:21:25;49.95;;;22.42;;
40815;SDS011;26535;48.788;9.214;2022-12-18T22:23:57;50.88;;;23.27;;
40815;SDS011;26535;48.788;9.214;2022-12-18T22:26:28;53.92;;;23.52;;
40815;SDS011;26535;48.788;9.214;2022-12-18T22:28:56;49.03;;;21.80;;
40815;SDS011;26535;48.788;9.214;2022-12-18T22:31:40;51.83;;;23.05;;
40815;SDS011;26535;48.788;9.214;2022-12-18T22:34:06;51.08;;;22.27;;
40815;SDS011;26535;48.788;9.214;2022-12-18T22:36:33;50.35;;;23.17;;
40815;SDS011;26535;48.788;9.214;2022-12-18T22:39:15;53.50;;;24.02;;
40815;SDS011;26535;48.788;9.214;2022-12-18T22:41:43;46.53;;;21.55;;
40815;SDS011;26535;48.788;9.214;2022-12-18T22:44:09;47.83;;;22.08;;
40815;SDS011;26535;48.788;9.214;2022-12-18T22:46:39;45.78;;;22.27;;
40815;SDS011;26535;48.788;9.214;2022-12-18T22:49:12;50.45;;;22.85;;
40815;SDS011;26535;48.788;9.214;2022-12-18T22:51:42;46.88;;;21.73;;
40815;SDS011;26535;48.788;9.214;2022-12-18T22:54:08;48.83;;;22.35;;
40815;SDS011;26535;48.788;9.214;2022-12-18T22:56:34;48.08;;;21.10;;
40815;SDS011;26535;48.788;9.214;2022-12-18T22:59:00;50.33;;;22.20;;
40815;SDS011;26535;48.788;9.214;2022-12-18T23:01:27;46.13;;;21.38;;
40815;SDS011;26535;48.788;9.214;2022-12-18T23:03:54;46.75;;;21.70;;
40815;SDS011;26535;48.788;9.214;2022-12-18T23:06:20;46.45;;;20.75;;
40815;SDS011;26535;48.788;9.214;2022-12-18T23:08:48;47.45;;;20.35;;
40815;SDS011;26535;48.788;9.214;2022-12-18T23:11:17;50.22;;;21.95;;
40815;SDS011;26535;48.788;9.214;2022-12-18T23:13:46;49.45;;;20.70;;
40815;SDS011;26535;48.788;9.214;2022-12-18T23:16:13;45.97;;;21.00;;
40815;SDS011;26535;48.788;9.214;2022-12-18T23:18:42;45.17;;;19.25;;
40815;SDS011;26535;48.788;9.214;2022-12-18T23:21:12;46.13;;;20.83;;
40815;SDS011;26535;48.788;9.214;2022-12-18T23:23:46;47.60;;;21.17;;
40815;SDS011;26535;48.788;9.214;2022-12-18T23:26:16;47.28;;;21.83;;
40815;SDS011;26535;48.788;9.214;2022-12-18T23:28:46;47.17;;;21.15;;
40815;SDS011;26535;48.788;9.214;2022-12-18T23:31:18;47.83;;;20.42;;
40815;SDS011;26535;48.788;9.214;2022-12-18T23:33:54;46.47;;;20.50;;
40815;SDS011;26535;48.788;9.214;2022-12-18T23:36:21;46.92;;;20.83;;
40815;SDS011;26535;48.788;9.214;2022-12-18T23:38:51;47.30;;;21.20;;